sensor_id;sensor_type;location;lat;lon;timestamp;P1;durP1;ratioP1;P2;durP2;ratioP2
56477;SDS011;42382;53.210;5.772;2022-11-20T00:00:52;14.63;;;9.05;;
56477;SDS011;42382;53.210;5.772;2022-11-20T00:03:18;15.27;;;8.55;;
56477;SDS011;42382;53.210;5.772;2022-11-20T00:05:44;17.58;;;9.52;;
56477;SDS011;42382;53.210;5.772;2022-11-20T00:08:10;15.50;;;8.82;;
56477;SDS011;42382;53.210;5.772;2022-11-20T00:10:37;15.88;;;8.60;;
56477;SDS011;42382;53.210;5.772;2022-11-20T00:13:03;13.30;;;7.95;;
56477;SDS011;42382;53.210;5.772;2022-11-20T00:15:30;12.80;;;8.23;;
56477;SDS011;42382;53.210;5.772;2022-11-20T00:17:56;14.15;;;8.43;;
56477;SDS011;42382;53.210;5.772;2022-11-20T00:20:22;16.25;;;8.85;;
56477;SDS011;42382;53.210;5.772;2022-11-20T00:22:49;17.00;;;8.40;;
56477;SDS011;42382;53.210;5.772;2022-11-20T00:25:15;14.15;;;8.88;;
56477;SDS011;42382;53.210;5.772;2022-11-20T00:27:41;12.80;;;8.40;;
56477;SDS011;42382;53.210;5.772;2022-11-20T00:30:07;10.68;;;7.32;;
56477;SDS011;42382;53.210;5.772;2022-11-20T00:32:33;17.52;;;8.75;;
56477;SDS011;42382;53.210;5.772;2022-11-20T00:34:59;14.55;;;8.63;;
56477;SDS011;42382;53.210;5.772;2022-11-20T00:37:25;16.15;;;8.35;;
56477;SDS011;42382;53.210;5.772;2022-11-20T00:39:51;14.52;;;9.20;;
56477;SDS011;42382;53.210;5.772;2022-11-20T00:42:17;13.32;;;8.35;;
56477;SDS011;42382;53.210;5.772;2022-11-20T00:44:43;13.85;;;8.63;;
56477;SDS011;42382;53.210;5.772;2022-11-20T00:47:09;15.98;;;8.80;;
56477;SDS011;42382;53.210;5.772;2022-11-20T00:49:35;14.70;;;8.93;;
56477;SDS011;42382;53.210;5.772;2022-11-20T00:52:01;15.23;;;8.80;;
56477;SDS011;42382;53.210;5.772;2022-11-20T00:54:27;15.25;;;8.65;;
56477;SDS011;42382;53.210;5.772;2022-11-20T00:56:53;15.20;;;9.20;;
56477;SDS011;42382;53.210;5.772;2022-11-20T00:59:19;13.82;;;9.07;;
56477;SDS011;42382;53.210;5.772;2022-11-20T01:01:45;13.07;;;8.35;;
56477;SDS011;42382;53.210;5.772;2022-11-20T01:04:11;12.93;;;8.35;;
56477;SDS011;42382;53.210;5.772;2022-11-20T01:06:38;19.15;;;9.20;;
56477;SDS011;42382;53.210;5.772;2022-11-20T01:09:06;16.48;;;8.60;;
56477;SDS011;42382;53.210;5.772;2022-11-20T01:11:33;12.85;;;8.00;;
56477;SDS011;42382;53.210;5.772;2022-11-20T01:14:01;14.65;;;8.32;;
56477;SDS011;42382;53.210;5.772;2022-11-20T01:16:34;15.77;;;8.27;;
56477;SDS011;42382;53.210;5.772;2022-11-20T01:19:02;14.95;;;8.52;;
56477;SDS011;42382;53.210;5.772;2022-11-20T01:21:32;13.63;;;8.25;;
56477;SDS011;42382;53.210;5.772;2022-11-20T01:23:59;15.30;;;8.98;;
56477;SDS011;42382;53.210;5.772;2022-11-20T01:26:26;11.75;;;7.38;;
56477;SDS011;42382;53.210;5.772;2022-11-20T01:28:54;14.18;;;8.43;;
56477;SDS011;42382;53.210;5.772;2022-11-20T01:31:21;13.10;;;8.80;;
56477;SDS011;42382;53.210;5.772;2022-11-20T01:33:49;13.60;;;8.35;;
56477;SDS011;42382;53.210;5.772;2022-11-20T01:36:15;12.93;;;8.23;;
56477;SDS011;42382;53.210;5.772;2022-11-20T01:38:42;12.40;;;7.95;;
56477;SDS011;42382;53.210;5.772;2022-11-20T01:41:08;12.95;;;8.35;;
56477;SDS011;42382;53.210;5.772;2022-11-20T01:43:35;13.15;;;8.15;;
56477;SDS011;42382;53.210;5.772;2022-11-20T01:46:17;13.95;;;8.85;;
56477;SDS011;42382;53.210;5.772;2022-11-20T01:54:01;15.25;;;8.95;;
56477;SDS011;42382;53.210;5.772;2022-11-20T01:56:28;17.05;;;8.73;;
56477;SDS011;42382;53.210;5.772;2022-11-20T01:58:55;15.32;;;9.25;;
56477;SDS011;42382;53.210;5.772;2022-11-20T02:01:22;14.40;;;8.15;;
56477;SDS011;42382;53.210;5.772;2022-11-20T02:03:49;13.07;;;7.88;;
56477;SDS011;42382;53.210;5.772;2022-11-20T02:06:23;14.55;;;8.80;;
56477;SDS011;42382;53.210;5.772;2022-11-20T02:08:50;15.43;;;9.60;;
56477;SDS011;42382;53.210;5.772;2022-11-20T02:11:17;13.48;;;8.30;;
56477;SDS011;42382;53.210;5.772;2022-11-20T02:13:43;15.30;;;8.55;;
56477;SDS011;42382;53.210;5.772;2022-11-20T02:16:10;16.85;;;9.35;;
56477;SDS011;42382;53.210;5.772;2022-11-20T02:18:37;13.57;;;8.88;;
56477;SDS011;42382;53.210;5.772;2022-11-20T02:21:06;17.80;;;9.27;;
56477;SDS011;42382;53.210;5.772;2022-11-20T02:23:36;15.50;;;8.93;;
56477;SDS011;42382;53.210;5.772;2022-11-20T02:26:04;15.15;;;9.20;;
56477;SDS011;42382;53.210;5.772;2022-11-20T02:28:32;15.27;;;9.07;;
56477;SDS011;42382;53.210;5.772;2022-11-20T02:30:58;13.95;;;8.60;;
56477;SDS011;42382;53.210;5.772;2022-11-20T02:33:23;15.20;;;8.82;;
56477;SDS011;42382;53.210;5.772;2022-11-20T02:35:49;21.35;;;8.88;;
56477;SDS011;42382;53.210;5.772;2022-11-20T02:38:15;15.00;;;9.35;;
56477;SDS011;42382;53.210;5.772;2022-11-20T02:40:42;15.82;;;9.50;;
56477;SDS011;42382;53.210;5.772;2022-11-20T02:43:08;15.52;;;8.70;;
56477;SDS011;42382;53.210;5.772;2022-11-20T02:45:34;15.27;;;8.75;;
56477;SDS011;42382;53.210;5.772;2022-11-20T02:48:00;15.05;;;9.90;;
56477;SDS011;42382;53.210;5.772;2022-11-20T02:50:26;15.32;;;9.65;;
56477;SDS011;42382;53.210;5.772;2022-11-20T02:52:52;20.60;;;9.70;;
56477;SDS011;42382;53.210;5.772;2022-11-20T02:55:18;15.23;;;9.88;;
56477;SDS011;42382;53.210;5.772;2022-11-20T02:57:44;18.13;;;9.70;;
56477;SDS011;42382;53.210;5.772;2022-11-20T03:00:10;14.90;;;9.80;;
56477;SDS011;42382;53.210;5.772;2022-11-20T03:02:36;17.58;;;10.20;;
56477;SDS011;42382;53.210;5.772;2022-11-20T03:05:02;16.65;;;9.27;;
56477;SDS011;42382;53.210;5.772;2022-11-20T03:07:28;14.85;;;9.13;;
56477;SDS011;42382;53.210;5.772;2022-11-20T03:09:54;16.20;;;8.90;;
56477;SDS011;42382;53.210;5.772;2022-11-20T03:12:20;12.95;;;8.77;;
56477;SDS011;42382;53.210;5.772;2022-11-20T03:14:46;15.85;;;8.95;;
56477;SDS011;42382;53.210;5.772;2022-11-20T03:17:12;15.70;;;9.80;;
56477;SDS011;42382;53.210;5.772;2022-11-20T03:19:38;14.57;;;8.82;;
56477;SDS011;42382;53.210;5.772;2022-11-20T03:22:04;14.55;;;9.05;;
56477;SDS011;42382;53.210;5.772;2022-11-20T03:24:30;15.23;;;8.73;;
56477;SDS011;42382;53.210;5.772;2022-11-20T03:26:56;15.93;;;8.93;;
56477;SDS011;42382;53.210;5.772;2022-11-20T03:29:22;14.27;;;8.50;;
56477;SDS011;42382;53.210;5.772;2022-11-20T03:31:48;13.68;;;7.78;;
56477;SDS011;42382;53.210;5.772;2022-11-20T03:34:14;14.07;;;7.85;;
56477;SDS011;42382;53.210;5.772;2022-11-20T03:36:41;15.63;;;8.95;;
56477;SDS011;42382;53.210;5.772;2022-11-20T03:39:07;16.65;;;9.13;;
56477;SDS011;42382;53.210;5.772;2022-11-20T03:41:37;15.23;;;7.90;;
56477;SDS011;42382;53.210;5.772;2022-11-20T03:44:05;13.75;;;7.90;;
56477;SDS011;42382;53.210;5.772;2022-11-20T03:46:31;14.82;;;8.38;;
56477;SDS011;42382;53.210;5.772;2022-11-20T03:48:57;13.15;;;7.85;;
56477;SDS011;42382;53.210;5.772;2022-11-20T03:51:24;12.95;;;7.95;;
56477;SDS011;42382;53.210;5.772;2022-11-20T03:53:51;13.63;;;8.32;;
56477;SDS011;42382;53.210;5.772;2022-11-20T03:56:19;12.40;;;7.95;;
56477;SDS011;42382;53.210;5.772;2022-11-20T03:58:45;12.18;;;7.88;;
56477;SDS011;42382;53.210;5.772;2022-11-20T04:01:15;15.23;;;8.65;;
56477;SDS011;42382;53.210;5.772;2022-11-20T04:03:42;18.33;;;9.35;;
56477;SDS011;42382;53.210;5.772;2022-11-20T04:06:12;13.23;;;7.90;;
56477;SDS011;42382;53.210;5.772;2022-11-20T04:08:38;15.43;;;9.40;;
56477;SDS011;42382;53.210;5.772;2022-11-20T04:11:08;14.05;;;8.23;;
56477;SDS011;42382;53.210;5.772;2022-11-20T04:13:35;13.68;;;8.20;;
56477;SDS011;42382;53.210;5.772;2022-11-20T04:16:01;14.98;;;8.75;;
56477;SDS011;42382;53.210;5.772;2022-11-20T04:18:27;13.90;;;8.80;;
56477;SDS011;42382;53.210;5.772;2022-11-20T04:20:52;15.48;;;9.20;;
56477;SDS011;42382;53.210;5.772;2022-11-20T04:23:18;13.95;;;8.35;;
56477;SDS011;42382;53.210;5.772;2022-11-20T04:25:44;16.75;;;7.97;;
56477;SDS011;42382;53.210;5.772;2022-11-20T04:28:10;13.35;;;8.25;;
56477;SDS011;42382;53.210;5.772;2022-11-20T04:30:36;11.70;;;7.63;;
56477;SDS011;42382;53.210;5.772;2022-11-20T04:33:02;16.05;;;8.80;;
56477;SDS011;42382;53.210;5.772;2022-11-20T04:35:28;13.75;;;8.20;;
56477;SDS011;42382;53.210;5.772;2022-11-20T04:37:54;13.95;;;8.38;;
56477;SDS011;42382;53.210;5.772;2022-11-20T04:40:20;14.98;;;8.05;;
56477;SDS011;42382;53.210;5.772;2022-11-20T04:42:46;13.70;;;8.10;;
56477;SDS011;42382;53.210;5.772;2022-11-20T04:45:12;12.48;;;7.65;;
56477;SDS011;42382;53.210;5.772;2022-11-20T04:47:38;13.45;;;8.05;;
56477;SDS011;42382;53.210;5.772;2022-11-20T04:50:04;12.52;;;8.18;;
56477;SDS011;42382;53.210;5.772;2022-11-20T04:52:30;14.20;;;8.13;;
56477;SDS011;42382;53.210;5.772;2022-11-20T04:54:56;13.07;;;7.78;;
56477;SDS011;42382;53.210;5.772;2022-11-20T04:57:22;13.10;;;8.07;;
56477;SDS011;42382;53.210;5.772;2022-11-20T04:59:48;14.23;;;7.45;;
56477;SDS011;42382;53.210;5.772;2022-11-20T05:02:14;13.20;;;8.32;;
56477;SDS011;42382;53.210;5.772;2022-11-20T05:04:40;13.55;;;8.30;;
56477;SDS011;42382;53.210;5.772;2022-11-20T05:07:06;16.02;;;9.60;;
56477;SDS011;42382;53.210;5.772;2022-11-20T05:09:32;13.25;;;8.00;;
56477;SDS011;42382;53.210;5.772;2022-11-20T05:11:58;13.07;;;8.20;;
56477;SDS011;42382;53.210;5.772;2022-11-20T05:14:24;12.48;;;8.32;;
56477;SDS011;42382;53.210;5.772;2022-11-20T05:16:50;13.75;;;8.25;;
56477;SDS011;42382;53.210;5.772;2022-11-20T05:19:16;11.75;;;7.47;;
56477;SDS011;42382;53.210;5.772;2022-11-20T05:21:42;15.23;;;8.52;;
56477;SDS011;42382;53.210;5.772;2022-11-20T05:24:08;14.98;;;8.63;;
56477;SDS011;42382;53.210;5.772;2022-11-20T05:26:34;12.35;;;7.80;;
56477;SDS011;42382;53.210;5.772;2022-11-20T05:29:00;12.70;;;7.65;;
56477;SDS011;42382;53.210;5.772;2022-11-20T05:31:25;12.93;;;7.55;;
56477;SDS011;42382;53.210;5.772;2022-11-20T05:33:51;13.18;;;8.90;;
56477;SDS011;42382;53.210;5.772;2022-11-20T05:36:17;14.48;;;7.95;;
56477;SDS011;42382;53.210;5.772;2022-11-20T05:38:44;15.63;;;8.35;;
56477;SDS011;42382;53.210;5.772;2022-11-20T05:43:36;13.40;;;8.50;;
56477;SDS011;42382;53.210;5.772;2022-11-20T05:46:03;13.77;;;7.97;;
56477;SDS011;42382;53.210;5.772;2022-11-20T05:48:29;13.93;;;8.23;;
56477;SDS011;42382;53.210;5.772;2022-11-20T05:50:59;14.00;;;8.13;;
56477;SDS011;42382;53.210;5.772;2022-11-20T05:53:25;14.52;;;8.18;;
56477;SDS011;42382;53.210;5.772;2022-11-20T05:56:01;13.20;;;8.38;;
56477;SDS011;42382;53.210;5.772;2022-11-20T05:58:27;14.90;;;8.23;;
56477;SDS011;42382;53.210;5.772;2022-11-20T06:00:53;12.43;;;7.93;;
56477;SDS011;42382;53.210;5.772;2022-11-20T06:03:19;11.38;;;7.45;;
56477;SDS011;42382;53.210;5.772;2022-11-20T06:05:45;13.88;;;7.95;;
56477;SDS011;42382;53.210;5.772;2022-11-20T06:08:11;12.15;;;7.55;;
56477;SDS011;42382;53.210;5.772;2022-11-20T06:10:37;12.98;;;7.30;;
56477;SDS011;42382;53.210;5.772;2022-11-20T06:13:03;14.35;;;8.05;;
56477;SDS011;42382;53.210;5.772;2022-11-20T06:15:29;10.98;;;7.13;;
56477;SDS011;42382;53.210;5.772;2022-11-20T06:17:55;11.55;;;7.82;;
56477;SDS011;42382;53.210;5.772;2022-11-20T06:20:21;11.68;;;7.55;;
56477;SDS011;42382;53.210;5.772;2022-11-20T06:22:47;14.20;;;7.63;;
56477;SDS011;42382;53.210;5.772;2022-11-20T06:25:13;15.27;;;8.93;;
56477;SDS011;42382;53.210;5.772;2022-11-20T06:27:39;14.02;;;7.90;;
56477;SDS011;42382;53.210;5.772;2022-11-20T06:30:05;11.82;;;7.88;;
56477;SDS011;42382;53.210;5.772;2022-11-20T06:32:32;12.35;;;7.32;;
56477;SDS011;42382;53.210;5.772;2022-11-20T06:34:58;14.25;;;8.45;;
56477;SDS011;42382;53.210;5.772;2022-11-20T06:37:24;14.02;;;8.80;;
56477;SDS011;42382;53.210;5.772;2022-11-20T06:39:50;12.55;;;7.88;;
56477;SDS011;42382;53.210;5.772;2022-11-20T06:42:16;12.02;;;7.82;;
56477;SDS011;42382;53.210;5.772;2022-11-20T06:44:42;16.00;;;9.90;;
56477;SDS011;42382;53.210;5.772;2022-11-20T06:47:08;15.85;;;8.90;;
56477;SDS011;42382;53.210;5.772;2022-11-20T06:49:34;13.57;;;8.45;;
56477;SDS011;42382;53.210;5.772;2022-11-20T06:52:02;12.15;;;7.68;;
56477;SDS011;42382;53.210;5.772;2022-11-20T06:54:28;14.75;;;8.95;;
56477;SDS011;42382;53.210;5.772;2022-11-20T06:56:54;14.50;;;9.07;;
56477;SDS011;42382;53.210;5.772;2022-11-20T06:59:20;14.30;;;9.23;;
56477;SDS011;42382;53.210;5.772;2022-11-20T07:01:46;15.32;;;9.05;;
56477;SDS011;42382;53.210;5.772;2022-11-20T07:04:12;15.02;;;9.07;;
56477;SDS011;42382;53.210;5.772;2022-11-20T07:06:38;13.23;;;8.80;;
56477;SDS011;42382;53.210;5.772;2022-11-20T07:09:04;16.70;;;10.40;;
56477;SDS011;42382;53.210;5.772;2022-11-20T07:11:30;18.80;;;12.27;;
56477;SDS011;42382;53.210;5.772;2022-11-20T07:13:56;20.30;;;13.30;;
56477;SDS011;42382;53.210;5.772;2022-11-20T07:16:22;19.83;;;12.73;;
56477;SDS011;42382;53.210;5.772;2022-11-20T07:18:48;18.98;;;12.45;;
56477;SDS011;42382;53.210;5.772;2022-11-20T07:21:14;19.10;;;11.43;;
56477;SDS011;42382;53.210;5.772;2022-11-20T07:23:40;16.50;;;10.43;;
56477;SDS011;42382;53.210;5.772;2022-11-20T07:26:07;17.38;;;9.07;;
56477;SDS011;42382;53.210;5.772;2022-11-20T07:28:33;16.42;;;10.43;;
56477;SDS011;42382;53.210;5.772;2022-11-20T07:31:00;15.18;;;9.77;;
56477;SDS011;42382;53.210;5.772;2022-11-20T07:33:26;16.05;;;10.43;;
56477;SDS011;42382;53.210;5.772;2022-11-20T07:35:52;17.92;;;10.15;;
56477;SDS011;42382;53.210;5.772;2022-11-20T07:38:18;20.63;;;12.27;;
56477;SDS011;42382;53.210;5.772;2022-11-20T07:40:44;17.65;;;12.18;;
56477;SDS011;42382;53.210;5.772;2022-11-20T07:43:13;22.00;;;12.32;;
56477;SDS011;42382;53.210;5.772;2022-11-20T07:45:39;18.58;;;11.27;;
56477;SDS011;42382;53.210;5.772;2022-11-20T07:48:05;18.15;;;11.05;;
56477;SDS011;42382;53.210;5.772;2022-11-20T07:50:31;16.20;;;10.75;;
56477;SDS011;42382;53.210;5.772;2022-11-20T07:53:01;18.77;;;10.32;;
56477;SDS011;42382;53.210;5.772;2022-11-20T07:55:27;17.85;;;10.18;;
56477;SDS011;42382;53.210;5.772;2022-11-20T07:57:54;18.15;;;10.00;;
56477;SDS011;42382;53.210;5.772;2022-11-20T08:00:20;17.42;;;9.80;;
56477;SDS011;42382;53.210;5.772;2022-11-20T08:02:46;16.88;;;9.95;;
56477;SDS011;42382;53.210;5.772;2022-11-20T08:05:12;14.75;;;9.18;;
56477;SDS011;42382;53.210;5.772;2022-11-20T08:07:39;16.35;;;9.25;;
56477;SDS011;42382;53.210;5.772;2022-11-20T08:10:06;20.67;;;11.18;;
56477;SDS011;42382;53.210;5.772;2022-11-20T08:12:32;14.60;;;9.73;;
56477;SDS011;42382;53.210;5.772;2022-11-20T08:15:17;15.93;;;9.88;;
56477;SDS011;42382;53.210;5.772;2022-11-20T08:17:43;17.77;;;10.65;;
56477;SDS011;42382;53.210;5.772;2022-11-20T08:20:09;17.40;;;10.60;;
56477;SDS011;42382;53.210;5.772;2022-11-20T08:22:35;22.00;;;12.30;;
56477;SDS011;42382;53.210;5.772;2022-11-20T08:25:01;17.50;;;11.00;;
56477;SDS011;42382;53.210;5.772;2022-11-20T08:27:27;20.00;;;12.00;;
56477;SDS011;42382;53.210;5.772;2022-11-20T08:29:53;19.85;;;11.90;;
56477;SDS011;42382;53.210;5.772;2022-11-20T08:32:19;15.20;;;10.60;;
56477;SDS011;42382;53.210;5.772;2022-11-20T08:34:45;19.98;;;11.63;;
56477;SDS011;42382;53.210;5.772;2022-11-20T08:37:11;16.85;;;10.60;;
56477;SDS011;42382;53.210;5.772;2022-11-20T08:39:37;16.05;;;10.25;;
56477;SDS011;42382;53.210;5.772;2022-11-20T08:42:06;16.58;;;10.05;;
56477;SDS011;42382;53.210;5.772;2022-11-20T08:44:32;19.52;;;11.48;;
56477;SDS011;42382;53.210;5.772;2022-11-20T08:46:58;16.35;;;10.38;;
56477;SDS011;42382;53.210;5.772;2022-11-20T08:49:25;15.05;;;10.27;;
56477;SDS011;42382;53.210;5.772;2022-11-20T08:51:51;15.65;;;9.82;;
56477;SDS011;42382;53.210;5.772;2022-11-20T08:54:20;16.83;;;10.63;;
56477;SDS011;42382;53.210;5.772;2022-11-20T08:56:47;14.88;;;10.07;;
56477;SDS011;42382;53.210;5.772;2022-11-20T08:59:13;15.63;;;10.57;;
56477;SDS011;42382;53.210;5.772;2022-11-20T09:01:39;19.40;;;11.23;;
56477;SDS011;42382;53.210;5.772;2022-11-20T09:04:05;18.05;;;11.10;;
56477;SDS011;42382;53.210;5.772;2022-11-20T09:06:31;17.88;;;11.05;;
56477;SDS011;42382;53.210;5.772;2022-11-20T09:08:57;15.13;;;10.25;;
56477;SDS011;42382;53.210;5.772;2022-11-20T09:11:23;15.40;;;10.13;;
56477;SDS011;42382;53.210;5.772;2022-11-20T09:13:49;13.70;;;9.60;;
56477;SDS011;42382;53.210;5.772;2022-11-20T09:16:15;13.98;;;9.65;;
56477;SDS011;42382;53.210;5.772;2022-11-20T09:18:41;15.65;;;10.30;;
56477;SDS011;42382;53.210;5.772;2022-11-20T09:21:11;15.88;;;9.57;;
56477;SDS011;42382;53.210;5.772;2022-11-20T09:23:38;15.93;;;9.40;;
56477;SDS011;42382;53.210;5.772;2022-11-20T09:26:09;14.77;;;9.00;;
56477;SDS011;42382;53.210;5.772;2022-11-20T09:28:36;15.95;;;10.07;;
56477;SDS011;42382;53.210;5.772;2022-11-20T09:31:05;13.90;;;9.15;;
56477;SDS011;42382;53.210;5.772;2022-11-20T09:33:31;13.98;;;9.30;;
56477;SDS011;42382;53.210;5.772;2022-11-20T09:35:57;12.90;;;8.70;;
56477;SDS011;42382;53.210;5.772;2022-11-20T09:38:24;15.07;;;9.73;;
56477;SDS011;42382;53.210;5.772;2022-11-20T09:40:53;14.73;;;9.32;;
56477;SDS011;42382;53.210;5.772;2022-11-20T09:43:24;14.55;;;10.00;;
56477;SDS011;42382;53.210;5.772;2022-11-20T09:45:56;14.98;;;10.32;;
56477;SDS011;42382;53.210;5.772;2022-11-20T09:56:13;14.73;;;9.30;;
56477;SDS011;42382;53.210;5.772;2022-11-20T09:58:42;13.98;;;9.90;;
56477;SDS011;42382;53.210;5.772;2022-11-20T10:01:11;13.85;;;9.45;;
56477;SDS011;42382;53.210;5.772;2022-11-20T10:03:41;12.77;;;8.98;;
56477;SDS011;42382;53.210;5.772;2022-11-20T10:06:12;12.73;;;8.93;;
56477;SDS011;42382;53.210;5.772;2022-11-20T10:08:45;15.43;;;9.70;;
56477;SDS011;42382;53.210;5.772;2022-11-20T10:11:21;13.93;;;9.40;;
56477;SDS011;42382;53.210;5.772;2022-11-20T10:21:53;13.60;;;8.98;;
56477;SDS011;42382;53.210;5.772;2022-11-20T10:29:33;13.82;;;9.75;;
56477;SDS011;42382;53.210;5.772;2022-11-20T10:32:14;14.93;;;10.05;;
56477;SDS011;42382;53.210;5.772;2022-11-20T10:34:44;15.00;;;9.98;;
56477;SDS011;42382;53.210;5.772;2022-11-20T10:37:13;13.40;;;9.20;;
56477;SDS011;42382;53.210;5.772;2022-11-20T10:39:44;17.38;;;10.02;;
56477;SDS011;42382;53.210;5.772;2022-11-20T10:42:15;14.93;;;9.23;;
56477;SDS011;42382;53.210;5.772;2022-11-20T10:44:45;13.40;;;9.38;;
56477;SDS011;42382;53.210;5.772;2022-11-20T10:47:30;14.00;;;9.00;;
56477;SDS011;42382;53.210;5.772;2022-11-20T10:49:57;14.63;;;8.88;;
56477;SDS011;42382;53.210;5.772;2022-11-20T11:00:10;11.30;;;8.23;;
56477;SDS011;42382;53.210;5.772;2022-11-20T11:02:50;13.32;;;8.57;;
56477;SDS011;42382;53.210;5.772;2022-11-20T11:05:25;14.43;;;8.27;;
56477;SDS011;42382;53.210;5.772;2022-11-20T11:07:54;15.35;;;8.35;;
56477;SDS011;42382;53.210;5.772;2022-11-20T11:10:25;16.00;;;9.40;;
56477;SDS011;42382;53.210;5.772;2022-11-20T11:12:52;11.50;;;8.07;;
56477;SDS011;42382;53.210;5.772;2022-11-20T11:15:38;12.15;;;7.30;;
56477;SDS011;42382;53.210;5.772;2022-11-20T11:18:04;9.15;;;6.38;;
56477;SDS011;42382;53.210;5.772;2022-11-20T11:20:30;9.90;;;6.88;;
56477;SDS011;42382;53.210;5.772;2022-11-20T11:22:57;9.65;;;6.47;;
56477;SDS011;42382;53.210;5.772;2022-11-20T11:25:28;8.60;;;5.85;;
56477;SDS011;42382;53.210;5.772;2022-11-20T11:27:56;11.60;;;7.32;;
56477;SDS011;42382;53.210;5.772;2022-11-20T11:30:23;13.10;;;6.25;;
56477;SDS011;42382;53.210;5.772;2022-11-20T11:32:49;9.35;;;6.53;;
56477;SDS011;42382;53.210;5.772;2022-11-20T11:35:26;9.70;;;6.40;;
56477;SDS011;42382;53.210;5.772;2022-11-20T11:37:53;7.40;;;5.30;;
56477;SDS011;42382;53.210;5.772;2022-11-20T11:40:21;8.32;;;5.82;;
56477;SDS011;42382;53.210;5.772;2022-11-20T11:42:52;7.43;;;5.22;;
56477;SDS011;42382;53.210;5.772;2022-11-20T11:45:19;7.65;;;4.82;;
56477;SDS011;42382;53.210;5.772;2022-11-20T11:47:46;6.13;;;4.10;;
56477;SDS011;42382;53.210;5.772;2022-11-20T11:50:20;5.90;;;4.00;;
56477;SDS011;42382;53.210;5.772;2022-11-20T11:55:34;6.30;;;4.13;;
56477;SDS011;42382;53.210;5.772;2022-11-20T12:00:47;7.80;;;5.10;;
56477;SDS011;42382;53.210;5.772;2022-11-20T12:05:45;8.23;;;5.82;;
56477;SDS011;42382;53.210;5.772;2022-11-20T12:11:03;4.07;;;3.42;;
56477;SDS011;42382;53.210;5.772;2022-11-20T12:16:02;5.68;;;3.33;;
56477;SDS011;42382;53.210;5.772;2022-11-20T12:18:28;7.43;;;4.20;;
56477;SDS011;42382;53.210;5.772;2022-11-20T12:23:41;5.90;;;4.65;;
56477;SDS011;42382;53.210;5.772;2022-11-20T12:26:45;6.70;;;4.63;;
56477;SDS011;42382;53.210;5.772;2022-11-20T12:29:06;6.85;;;4.55;;
56477;SDS011;42382;53.210;5.772;2022-11-20T12:31:41;6.80;;;4.38;;
56477;SDS011;42382;53.210;5.772;2022-11-20T12:34:17;7.57;;;4.38;;
56477;SDS011;42382;53.210;5.772;2022-11-20T12:36:51;6.95;;;4.65;;
56477;SDS011;42382;53.210;5.772;2022-11-20T12:41:53;7.18;;;4.05;;
56477;SDS011;42382;53.210;5.772;2022-11-20T12:50:25;8.65;;;4.28;;
56477;SDS011;42382;53.210;5.772;2022-11-20T12:55:42;5.15;;;4.10;;
56477;SDS011;42382;53.210;5.772;2022-11-20T12:58:18;6.60;;;4.45;;
56477;SDS011;42382;53.210;5.772;2022-11-20T13:00:54;6.63;;;4.82;;
56477;SDS011;42382;53.210;5.772;2022-11-20T13:03:31;6.72;;;4.80;;
56477;SDS011;42382;53.210;5.772;2022-11-20T13:06:08;6.25;;;4.20;;
56477;SDS011;42382;53.210;5.772;2022-11-20T13:08:37;7.25;;;5.00;;
56477;SDS011;42382;53.210;5.772;2022-11-20T13:11:13;7.30;;;4.45;;
56477;SDS011;42382;53.210;5.772;2022-11-20T13:18:35;8.30;;;4.85;;
56477;SDS011;42382;53.210;5.772;2022-11-20T13:21:12;7.88;;;4.60;;
56477;SDS011;42382;53.210;5.772;2022-11-20T13:26:15;7.72;;;4.35;;
56477;SDS011;42382;53.210;5.772;2022-11-20T13:28:41;8.43;;;4.65;;
56477;SDS011;42382;53.210;5.772;2022-11-20T13:34:13;9.48;;;5.70;;
56477;SDS011;42382;53.210;5.772;2022-11-20T13:36:55;6.85;;;4.28;;
56477;SDS011;42382;53.210;5.772;2022-11-20T13:39:31;9.30;;;4.70;;
56477;SDS011;42382;53.210;5.772;2022-11-20T13:42:02;7.82;;;4.82;;
56477;SDS011;42382;53.210;5.772;2022-11-20T13:44:48;8.90;;;5.22;;
56477;SDS011;42382;53.210;5.772;2022-11-20T13:47:28;8.93;;;5.85;;
56477;SDS011;42382;53.210;5.772;2022-11-20T13:49:57;8.10;;;5.45;;
56477;SDS011;42382;53.210;5.772;2022-11-20T13:52:43;9.75;;;6.10;;
56477;SDS011;42382;53.210;5.772;2022-11-20T13:57:57;6.97;;;4.90;;
56477;SDS011;42382;53.210;5.772;2022-11-20T14:00:33;12.02;;;5.60;;
56477;SDS011;42382;53.210;5.772;2022-11-20T14:03:14;8.20;;;5.45;;
56477;SDS011;42382;53.210;5.772;2022-11-20T14:06:01;10.80;;;5.70;;
56477;SDS011;42382;53.210;5.772;2022-11-20T14:11:15;9.07;;;6.15;;
56477;SDS011;42382;53.210;5.772;2022-11-20T14:16:22;9.98;;;6.43;;
56477;SDS011;42382;53.210;5.772;2022-11-20T14:18:49;11.00;;;7.10;;
56477;SDS011;42382;53.210;5.772;2022-11-20T14:21:21;9.25;;;6.35;;
56477;SDS011;42382;53.210;5.772;2022-11-20T14:23:48;10.73;;;6.13;;
56477;SDS011;42382;53.210;5.772;2022-11-20T14:26:14;9.77;;;6.70;;
56477;SDS011;42382;53.210;5.772;2022-11-20T14:28:47;14.00;;;7.07;;
56477;SDS011;42382;53.210;5.772;2022-11-20T14:31:21;8.70;;;6.28;;
56477;SDS011;42382;53.210;5.772;2022-11-20T14:33:50;9.33;;;5.77;;
56477;SDS011;42382;53.210;5.772;2022-11-20T14:36:21;10.02;;;6.45;;
56477;SDS011;42382;53.210;5.772;2022-11-20T14:38:48;9.73;;;6.80;;
56477;SDS011;42382;53.210;5.772;2022-11-20T14:41:19;9.52;;;6.43;;
56477;SDS011;42382;53.210;5.772;2022-11-20T14:43:58;10.73;;;6.78;;
56477;SDS011;42382;53.210;5.772;2022-11-20T14:46:25;11.30;;;7.28;;
56477;SDS011;42382;53.210;5.772;2022-11-20T14:48:55;10.98;;;7.07;;
56477;SDS011;42382;53.210;5.772;2022-11-20T14:51:35;11.50;;;7.45;;
56477;SDS011;42382;53.210;5.772;2022-11-20T14:54:24;10.30;;;6.60;;
56477;SDS011;42382;53.210;5.772;2022-11-20T14:56:58;10.43;;;7.13;;
56477;SDS011;42382;53.210;5.772;2022-11-20T14:59:25;11.48;;;6.93;;
56477;SDS011;42382;53.210;5.772;2022-11-20T15:02:03;10.60;;;6.18;;
56477;SDS011;42382;53.210;5.772;2022-11-20T15:04:30;8.52;;;5.95;;
56477;SDS011;42382;53.210;5.772;2022-11-20T15:06:57;9.77;;;6.30;;
56477;SDS011;42382;53.210;5.772;2022-11-20T15:09:25;10.27;;;6.25;;
56477;SDS011;42382;53.210;5.772;2022-11-20T15:11:52;9.95;;;6.38;;
56477;SDS011;42382;53.210;5.772;2022-11-20T15:14:26;9.50;;;6.40;;
56477;SDS011;42382;53.210;5.772;2022-11-20T15:16:53;10.55;;;6.55;;
56477;SDS011;42382;53.210;5.772;2022-11-20T15:19:21;8.95;;;6.22;;
56477;SDS011;42382;53.210;5.772;2022-11-20T15:21:48;9.13;;;5.78;;
56477;SDS011;42382;53.210;5.772;2022-11-20T15:24:14;10.02;;;6.13;;
56477;SDS011;42382;53.210;5.772;2022-11-20T15:26:40;10.50;;;5.93;;
56477;SDS011;42382;53.210;5.772;2022-11-20T15:29:09;8.57;;;5.38;;
56477;SDS011;42382;53.210;5.772;2022-11-20T15:31:37;9.43;;;5.93;;
56477;SDS011;42382;53.210;5.772;2022-11-20T15:34:02;10.48;;;5.82;;
56477;SDS011;42382;53.210;5.772;2022-11-20T15:36:31;7.97;;;5.90;;
56477;SDS011;42382;53.210;5.772;2022-11-20T15:38:57;8.80;;;6.07;;
56477;SDS011;42382;53.210;5.772;2022-11-20T15:41:23;9.80;;;6.35;;
56477;SDS011;42382;53.210;5.772;2022-11-20T15:43:48;10.48;;;6.50;;
56477;SDS011;42382;53.210;5.772;2022-11-20T15:46:15;9.13;;;5.82;;
56477;SDS011;42382;53.210;5.772;2022-11-20T15:48:52;8.95;;;5.43;;
56477;SDS011;42382;53.210;5.772;2022-11-20T15:53:45;11.48;;;6.53;;
56477;SDS011;42382;53.210;5.772;2022-11-20T15:56:12;11.50;;;7.13;;
56477;SDS011;42382;53.210;5.772;2022-11-20T15:58:38;11.98;;;7.45;;
56477;SDS011;42382;53.210;5.772;2022-11-20T16:01:05;18.10;;;9.82;;
56477;SDS011;42382;53.210;5.772;2022-11-20T16:03:30;22.13;;;11.07;;
56477;SDS011;42382;53.210;5.772;2022-11-20T16:05:56;15.13;;;8.57;;